Terminal Aerodrome Forecast
Issued by NWS

Current Version | Previous Version | Text Only | Print | Product List | Glossary On
Versions: 1 2 3 4 5 6 7 8 9 10 11 12 13
000
FTUS44 KTSA 041120
TAFRVS
TAF
KRVS 041120Z 0412/0512 17005KT P6SM VCSH SCT090 BKN200
     FM041800 19005KT P6SM VCSH OVC250 PROB30 0422/0502 3SM -TSRA
      BKN050CB
     FM050200 00000KT P6SM OVC120 PROB30 0502/0506 3SM -TSRA
      BKN050CB
     FM050600 09003KT P6SM OVC120 PROB30 0506/0512 3SM -TSRA
      BKN050CB=

USA.gov is the U.S. government's official web portal to all federal, state and local government web resources and services.